createdAt,value
2022-11-29T00:00:03.163Z,986.4393
2022-11-29T00:01:00.446Z,986.4891
2022-11-29T00:02:00.718Z,986.6975
2022-11-29T00:03:00.934Z,986.5378
2022-11-29T00:04:00.925Z,986.3827
2022-11-29T00:05:01.046Z,986.4813
2022-11-29T00:06:01.176Z,986.453
2022-11-29T00:07:00.335Z,986.5657
2022-11-29T00:08:00.473Z,986.4735
2022-11-29T00:09:00.628Z,986.4452
2022-11-29T00:10:00.790Z,986.6048
2022-11-29T00:11:00.914Z,986.4452
2022-11-29T00:12:01.060Z,986.6748
2022-11-29T00:13:01.212Z,986.5434
2022-11-29T00:14:00.354Z,986.5151
2022-11-29T00:15:00.525Z,986.5617
2022-11-29T00:16:00.649Z,986.5285
2022-11-29T00:17:00.860Z,986.4303
2022-11-29T00:18:00.948Z,986.4936
2022-11-29T00:19:01.100Z,986.5967
2022-11-29T00:20:01.269Z,986.6949
2022-11-29T00:21:00.393Z,986.5003
2022-11-29T00:22:00.543Z,986.6316
2022-11-29T00:23:00.690Z,986.6666
2022-11-29T00:24:00.848Z,986.5751
2022-11-29T00:25:01.013Z,986.4857
2022-11-29T00:26:01.132Z,986.7302
2022-11-29T00:27:00.270Z,986.514
2022-11-29T00:28:00.428Z,986.5888
2022-11-29T00:29:00.593Z,986.4854
2022-11-29T00:30:00.724Z,986.4857
2022-11-29T00:31:00.926Z,986.68
2022-11-29T00:32:01.028Z,986.6168
2022-11-29T00:33:01.188Z,986.5885
2022-11-29T00:34:00.353Z,986.5203
2022-11-29T00:35:03.982Z,986.5203
2022-11-29T00:36:00.633Z,986.5669
2022-11-29T00:37:00.773Z,986.527
2022-11-29T00:38:00.923Z,986.5058
2022-11-29T00:39:01.084Z,986.5553
2022-11-29T00:40:01.218Z,986.68
2022-11-29T00:41:00.378Z,986.6089
2022-11-29T00:42:00.503Z,986.4493
2022-11-29T00:43:00.678Z,986.5587
2022-11-29T00:44:00.812Z,986.5587
2022-11-29T00:45:00.988Z,986.5624
2022-11-29T00:46:01.206Z,986.5624
2022-11-29T00:47:00.273Z,986.5125
2022-11-29T00:48:00.439Z,986.5125
2022-11-29T00:49:00.575Z,986.4627
2022-11-29T00:50:00.718Z,986.4842
2022-11-29T00:51:00.872Z,986.4344
2022-11-29T00:52:01.019Z,986.4976
2022-11-29T00:53:01.190Z,986.4761
2022-11-29T00:54:00.310Z,986.4478
2022-11-29T00:55:00.465Z,986.4061
2022-11-29T00:56:00.609Z,986.5043
2022-11-29T00:57:00.761Z,986.5862
2022-11-29T00:58:00.915Z,986.4694
2022-11-29T00:59:01.048Z,986.5326
2022-11-29T01:00:01.193Z,986.5792
2022-11-29T01:01:00.415Z,986.5862
2022-11-29T01:02:00.541Z,986.4761
2022-11-29T01:03:00.635Z,986.5792
2022-11-29T01:04:00.800Z,986.5043
2022-11-29T01:05:00.930Z,986.4411
2022-11-29T01:06:01.080Z,986.5192
2022-11-29T01:07:01.223Z,986.6145
2022-11-29T01:08:00.366Z,986.4694
2022-11-29T01:09:00.536Z,986.6075
2022-11-29T01:10:00.663Z,986.5192
2022-11-29T01:11:00.810Z,986.5122
2022-11-29T01:12:00.950Z,986.5587
2022-11-29T01:13:01.102Z,986.6153
2022-11-29T01:14:01.271Z,986.6789
2022-11-29T01:15:00.396Z,986.5122
2022-11-29T01:16:00.542Z,986.4493
2022-11-29T01:17:00.756Z,986.6856
2022-11-29T01:18:00.836Z,986.6153
2022-11-29T01:19:00.997Z,986.4273
2022-11-29T01:20:01.134Z,986.664
2022-11-29T01:21:00.287Z,986.5122
2022-11-29T01:22:00.429Z,986.5658
2022-11-29T01:23:00.574Z,986.587
2022-11-29T01:24:00.732Z,986.5341
2022-11-29T01:25:00.861Z,986.6439
2022-11-29T01:26:01.014Z,986.5341
2022-11-29T01:27:01.148Z,986.5341
2022-11-29T01:28:00.298Z,986.4854
2022-11-29T01:29:00.462Z,986.6584
2022-11-29T01:30:00.608Z,986.5736
2022-11-29T01:31:00.801Z,986.5341
2022-11-29T01:32:00.885Z,986.6089
2022-11-29T01:33:01.039Z,986.7503
2022-11-29T01:34:01.215Z,986.6089
2022-11-29T01:35:00.346Z,986.5486
2022-11-29T01:36:00.474Z,986.5203
2022-11-29T01:37:00.637Z,986.5736
2022-11-29T01:38:00.780Z,986.5885
2022-11-29T01:39:00.913Z,986.5419
2022-11-29T01:40:01.058Z,986.5136
2022-11-29T01:41:01.208Z,986.4154
2022-11-29T01:42:00.332Z,986.5602
2022-11-29T01:43:00.498Z,986.5885
2022-11-29T01:44:00.652Z,986.5885
2022-11-29T01:45:00.774Z,986.6171
2022-11-29T01:46:00.944Z,986.4857
2022-11-29T01:47:01.081Z,986.5423
2022-11-29T01:48:01.212Z,986.6454
2022-11-29T01:49:00.397Z,986.5285
2022-11-29T01:50:00.507Z,986.472
2022-11-29T01:51:00.661Z,986.5285
2022-11-29T01:52:00.807Z,986.6171
2022-11-29T01:53:00.967Z,986.5606
2022-11-29T01:54:01.138Z,986.5568
2022-11-29T01:55:00.276Z,986.6949
2022-11-29T01:56:00.451Z,986.7447
2022-11-29T01:57:00.565Z,986.6034
2022-11-29T01:58:00.718Z,986.6316
2022-11-29T01:59:00.890Z,986.5151
2022-11-29T02:00:01.001Z,986.6666
2022-11-29T02:01:01.216Z,986.5967
2022-11-29T02:02:00.303Z,986.5751
2022-11-29T02:03:00.457Z,986.6737
2022-11-29T02:04:00.622Z,986.5684
2022-11-29T02:05:00.751Z,986.6383
2022-11-29T02:06:00.904Z,986.5606
2022-11-29T02:07:01.053Z,986.6532
2022-11-29T02:08:01.200Z,986.6882
2022-11-29T02:09:00.380Z,986.5967
2022-11-29T02:10:00.499Z,986.4869
2022-11-29T02:11:00.652Z,986.6182
2022-11-29T02:12:00.805Z,986.6249
2022-11-29T02:13:00.956Z,986.5285
2022-11-29T02:14:01.118Z,986.514
2022-11-29T02:15:01.244Z,986.7083
2022-11-29T02:16:00.509Z,986.5136
2022-11-29T02:17:00.548Z,986.7083
2022-11-29T02:18:00.699Z,986.8147
2022-11-29T02:19:00.878Z,986.6168
2022-11-29T02:20:01.024Z,986.6454
2022-11-29T02:21:01.152Z,986.8147
2022-11-29T02:22:00.298Z,986.5602
2022-11-29T02:23:00.450Z,986.68
2022-11-29T02:24:00.592Z,986.4575
2022-11-29T02:25:00.782Z,986.5419
2022-11-29T02:26:00.884Z,986.645
2022-11-29T02:27:01.038Z,986.6584
2022-11-29T02:28:01.190Z,986.5553
2022-11-29T02:29:00.334Z,986.6584
2022-11-29T02:30:00.489Z,986.6584
2022-11-29T02:31:00.707Z,986.715
2022-11-29T02:32:00.769Z,986.68
2022-11-29T02:33:00.929Z,986.5669
2022-11-29T02:34:01.075Z,986.6019
2022-11-29T02:35:01.218Z,986.7648
2022-11-29T02:36:00.362Z,986.7016
2022-11-29T02:37:00.500Z,986.7016
2022-11-29T02:38:00.654Z,986.7715
2022-11-29T02:39:00.815Z,986.5203
2022-11-29T02:40:00.938Z,986.6584
2022-11-29T02:41:01.085Z,986.6584
2022-11-29T02:42:01.236Z,986.5553
2022-11-29T02:43:00.382Z,986.7433
2022-11-29T02:44:00.554Z,986.7849
2022-11-29T02:45:00.692Z,986.5807
2022-11-29T02:46:00.880Z,986.6153
2022-11-29T02:47:00.980Z,986.5874
2022-11-29T02:48:01.134Z,986.5404
2022-11-29T02:49:00.290Z,986.6153
2022-11-29T02:50:00.432Z,986.7005
2022-11-29T02:51:00.585Z,986.587
2022-11-29T02:52:00.719Z,986.7005
2022-11-29T02:53:00.870Z,986.6435
2022-11-29T02:54:01.043Z,986.5807
2022-11-29T02:55:01.158Z,986.6153
2022-11-29T02:56:00.310Z,986.6506
2022-11-29T02:57:00.459Z,986.8054
2022-11-29T02:58:00.606Z,986.5542
2022-11-29T02:59:00.774Z,986.6923
2022-11-29T03:00:00.899Z,986.6923
2022-11-29T03:01:01.095Z,986.7284
2022-11-29T03:02:01.200Z,986.7288
2022-11-29T03:03:00.356Z,986.7503
2022-11-29T03:04:00.520Z,986.8136
2022-11-29T03:05:00.643Z,986.7715
2022-11-29T03:06:00.803Z,986.7786
2022-11-29T03:07:00.944Z,986.7433
2022-11-29T03:08:01.145Z,986.7715
2022-11-29T03:09:01.257Z,986.757
2022-11-29T03:10:00.384Z,986.7005
2022-11-29T03:11:00.536Z,986.757
2022-11-29T03:12:00.671Z,986.7221
2022-11-29T03:13:00.845Z,986.7786
2022-11-29T03:14:00.959Z,986.8698
2022-11-29T03:15:01.101Z,986.6655
2022-11-29T03:16:01.325Z,986.7786
2022-11-29T03:17:00.358Z,986.6584
2022-11-29T03:18:00.527Z,986.7433
2022-11-29T03:19:00.651Z,986.7221
2022-11-29T03:20:00.800Z,986.8069
2022-11-29T03:21:00.957Z,986.6938
2022-11-29T03:22:01.108Z,986.7503
2022-11-29T03:23:01.272Z,986.8415
2022-11-29T03:24:00.398Z,986.7503
2022-11-29T03:25:00.542Z,986.6938
2022-11-29T03:26:00.705Z,986.7853
2022-11-29T03:27:00.859Z,986.8132
2022-11-29T03:28:01.027Z,986.7284
2022-11-29T03:29:01.148Z,986.8634
2022-11-29T03:30:00.286Z,986.8415
2022-11-29T03:31:00.479Z,986.7567
2022-11-29T03:32:00.579Z,986.8702
2022-11-29T03:33:00.743Z,986.8486
2022-11-29T03:34:00.874Z,986.8981
2022-11-29T03:35:01.017Z,986.8486
2022-11-29T03:36:01.168Z,986.7849
2022-11-29T03:37:00.304Z,986.792
2022-11-29T03:38:00.480Z,986.6655
2022-11-29T03:39:00.609Z,986.8203
2022-11-29T03:40:00.752Z,986.827
2022-11-29T03:41:00.895Z,986.8769
2022-11-29T03:42:01.037Z,986.8132
2022-11-29T03:43:01.223Z,986.8553
2022-11-29T03:44:00.332Z,986.8769
2022-11-29T03:45:00.476Z,986.7637
2022-11-29T03:46:00.673Z,986.7139
2022-11-29T03:47:00.774Z,986.8903
2022-11-29T03:48:00.944Z,986.7072
2022-11-29T03:49:01.061Z,986.9186
2022-11-29T03:50:01.204Z,986.8836
2022-11-29T03:51:00.358Z,986.7704
2022-11-29T03:52:00.492Z,986.8836
2022-11-29T03:53:00.651Z,986.7567
2022-11-29T03:54:00.793Z,986.9546
2022-11-29T03:55:00.935Z,986.8698
2022-11-29T03:56:01.081Z,986.8132
2022-11-29T03:57:01.239Z,986.7503
2022-11-29T03:58:00.393Z,987.0112
2022-11-29T03:59:00.522Z,986.8415
2022-11-29T04:00:00.666Z,986.757
2022-11-29T04:01:00.820Z,986.8419
2022-11-29T04:02:00.956Z,986.8415
2022-11-29T04:03:01.187Z,986.7786
2022-11-29T04:05:00.370Z,987.0395
2022-11-29T04:06:00.505Z,986.8136
2022-11-29T04:07:00.656Z,986.8069
2022-11-29T04:08:00.916Z,986.955
2022-11-29T04:09:00.959Z,986.8917
2022-11-29T04:10:01.120Z,986.8917
2022-11-29T04:11:00.272Z,986.7648
2022-11-29T04:12:00.423Z,986.9129
2022-11-29T04:13:00.590Z,986.9345
2022-11-29T04:14:00.727Z,986.9129
2022-11-29T04:15:00.871Z,986.9412
2022-11-29T04:16:01.040Z,986.9978
2022-11-29T04:17:01.178Z,986.8917
2022-11-29T04:18:00.344Z,986.9483
2022-11-29T04:19:00.461Z,986.9766
2022-11-29T04:20:00.609Z,987.0964
2022-11-29T04:21:00.761Z,987.0048
2022-11-29T04:22:00.897Z,986.9833
2022-11-29T04:23:01.062Z,986.8917
2022-11-29T04:24:01.217Z,986.8698
2022-11-29T04:25:00.347Z,986.9483
2022-11-29T04:26:00.486Z,987.0331
2022-11-29T04:27:00.647Z,987.0614
2022-11-29T04:28:00.783Z,986.8069
2022-11-29T04:29:00.958Z,986.8702
2022-11-29T04:30:01.102Z,986.8486
2022-11-29T04:31:01.304Z,986.8698
2022-11-29T04:32:00.376Z,987.0882
2022-11-29T04:33:00.529Z,987.1448
2022-11-29T04:34:00.687Z,987.0317
2022-11-29T04:35:00.817Z,987.0317
2022-11-29T04:36:00.992Z,987.0317
2022-11-29T04:37:01.105Z,986.9468
2022-11-29T04:38:01.262Z,986.9256
2022-11-29T04:39:00.392Z,986.8973
2022-11-29T04:40:00.552Z,986.8687
2022-11-29T04:41:00.712Z,986.9256
2022-11-29T04:42:00.873Z,986.9539
2022-11-29T04:43:00.994Z,986.9885
2022-11-29T04:44:01.147Z,987.0235
2022-11-29T04:45:00.295Z,986.967
2022-11-29T04:46:00.482Z,986.974
2022-11-29T04:47:00.603Z,986.967
2022-11-29T04:48:00.731Z,987.0235
2022-11-29T04:49:00.873Z,986.9592
2022-11-29T04:50:01.022Z,987.0723
2022-11-29T04:51:01.172Z,987.0157
2022-11-29T04:52:00.343Z,986.9309
2022-11-29T04:53:00.495Z,987.0161
2022-11-29T04:54:00.652Z,987.1289
2022-11-29T04:55:00.806Z,987.0235
2022-11-29T04:56:00.965Z,987.1649
2022-11-29T04:57:01.120Z,987.1367
2022-11-29T04:58:01.241Z,987.0387
2022-11-29T04:59:00.384Z,987.1367
2022-11-29T05:00:00.519Z,986.9885
2022-11-29T05:01:00.697Z,987.1437
2022-11-29T05:02:00.909Z,987.1649
2022-11-29T05:03:01.034Z,987.0801
2022-11-29T05:04:01.112Z,986.9535
2022-11-29T05:05:00.263Z,987.2148
2022-11-29T05:06:00.437Z,987.0801
2022-11-29T05:07:00.555Z,987.0801
2022-11-29T05:08:00.708Z,987.0235
2022-11-29T05:09:00.860Z,987.2215
2022-11-29T05:10:01.029Z,987.1367
2022-11-29T05:11:01.180Z,987.1649
2022-11-29T05:12:00.293Z,987.1437
2022-11-29T05:13:00.437Z,987.1437
2022-11-29T05:14:00.592Z,987.1932
2022-11-29T05:15:00.737Z,987.1649
2022-11-29T05:16:00.921Z,987.2137
2022-11-29T05:17:01.068Z,987.1437
2022-11-29T05:18:01.166Z,987.5044
2022-11-29T05:19:00.311Z,987.1017
2022-11-29T05:20:00.451Z,987.1367
2022-11-29T05:21:00.635Z,987.095
2022-11-29T05:22:00.770Z,987.4693
2022-11-29T05:23:00.906Z,987.2431
2022-11-29T05:24:01.049Z,987.1865
2022-11-29T05:25:01.244Z,987.1367
2022-11-29T05:26:00.358Z,987.5535
2022-11-29T05:27:00.517Z,987.5535
2022-11-29T05:28:03.405Z,987.1437
2022-11-29T05:29:00.778Z,987.2215
2022-11-29T05:30:00.919Z,987.5044
2022-11-29T05:31:01.104Z,987.5044
2022-11-29T05:32:01.249Z,987.4064
2022-11-29T05:33:00.367Z,987.5044
2022-11-29T05:34:00.509Z,987.4693
2022-11-29T05:35:00.659Z,987.3346
2022-11-29T05:36:00.810Z,987.2431
2022-11-29T05:37:00.972Z,987.3552
2022-11-29T05:38:01.094Z,987.242
2022-11-29T05:39:01.233Z,987.2137
2022-11-29T05:40:00.391Z,987.5652
2022-11-29T05:41:00.544Z,987.6218
2022-11-29T05:42:00.708Z,987.6218
2022-11-29T05:43:00.844Z,987.3672
2022-11-29T05:44:00.995Z,987.5369
2022-11-29T05:45:01.136Z,987.4605
2022-11-29T05:46:00.297Z,987.4521
2022-11-29T05:47:00.453Z,987.6235
2022-11-29T05:48:00.614Z,987.3336
2022-11-29T05:49:00.746Z,987.4804
2022-11-29T05:50:00.897Z,987.7916
2022-11-29T05:51:01.034Z,987.5087
2022-11-29T05:52:01.184Z,987.3672
2022-11-29T05:53:00.341Z,987.4238
2022-11-29T05:54:00.483Z,987.7916
2022-11-29T05:55:00.635Z,987.4238
2022-11-29T05:56:00.772Z,987.4804
2022-11-29T05:57:00.912Z,987.4521
2022-11-29T05:58:01.058Z,987.4238
2022-11-29T05:59:01.216Z,987.6073
2022-11-29T06:00:00.393Z,987.3456
2022-11-29T06:01:00.512Z,987.4372
2022-11-29T06:02:00.709Z,987.4372
2022-11-29T06:03:00.854Z,987.381
2022-11-29T06:04:00.956Z,987.8266
2022-11-29T06:05:01.125Z,987.4372
2022-11-29T06:06:00.265Z,987.677
2022-11-29T06:07:00.416Z,987.4723
2022-11-29T06:08:00.629Z,987.5221
2022-11-29T06:09:00.711Z,987.4659
2022-11-29T06:10:01.821Z,987.5288
2022-11-29T06:11:01.021Z,987.7053
2022-11-29T06:12:01.146Z,987.6986
2022-11-29T06:13:00.298Z,987.7053
2022-11-29T06:14:00.434Z,987.7124
2022-11-29T06:15:00.593Z,987.6204
2022-11-29T06:16:00.798Z,987.607
2022-11-29T06:17:00.877Z,987.4938
2022-11-29T06:18:01.016Z,987.5709
2022-11-29T06:19:01.165Z,987.5639
2022-11-29T06:20:00.300Z,987.5639
2022-11-29T06:21:00.477Z,987.5709
2022-11-29T06:22:00.597Z,987.5992
2022-11-29T06:23:00.761Z,987.4938
2022-11-29T06:24:00.891Z,987.5571
2022-11-29T06:25:01.039Z,987.7336
2022-11-29T06:26:04.109Z,987.5709
2022-11-29T06:27:00.347Z,987.5143
2022-11-29T06:28:00.486Z,987.6841
2022-11-29T06:29:00.615Z,987.6275
2022-11-29T06:30:00.774Z,987.8458
2022-11-29T06:31:00.960Z,987.5706
2022-11-29T06:32:01.080Z,987.6339
2022-11-29T06:33:01.212Z,987.7754
2022-11-29T06:34:00.353Z,987.8104
2022-11-29T06:35:00.496Z,987.7609
2022-11-29T06:36:00.654Z,987.6689
2022-11-29T06:37:00.810Z,987.7461
2022-11-29T06:38:00.946Z,987.6194
2022-11-29T06:39:01.096Z,987.6329
2022-11-29T06:40:01.244Z,987.7461
2022-11-29T06:41:02.324Z,987.7461
2022-11-29T06:42:00.555Z,987.9143
2022-11-29T06:43:00.699Z,987.7461
2022-11-29T06:44:00.836Z,987.8027
2022-11-29T06:45:00.974Z,987.831
2022-11-29T06:46:01.115Z,987.831
2022-11-29T06:47:00.308Z,987.8232
2022-11-29T06:48:00.411Z,987.6895
2022-11-29T06:49:02.367Z,987.7811
2022-11-29T06:50:00.695Z,987.7811
2022-11-29T06:51:00.837Z,987.7245
2022-11-29T06:52:01.001Z,987.9359
2022-11-29T06:53:01.142Z,987.9359
2022-11-29T06:54:00.264Z,987.866
2022-11-29T06:55:00.422Z,987.8377
2022-11-29T06:56:00.567Z,987.9635
2022-11-29T06:57:00.721Z,987.8303
2022-11-29T06:58:00.898Z,987.7811
2022-11-29T06:59:01.016Z,987.8593
2022-11-29T07:00:01.171Z,988.1339
2022-11-29T07:01:00.385Z,987.9359
2022-11-29T07:02:00.545Z,987.866
2022-11-29T07:03:00.622Z,987.9709
2022-11-29T07:04:00.788Z,987.8876
2022-11-29T07:05:00.912Z,988.1339
2022-11-29T07:06:01.057Z,987.9359
2022-11-29T07:07:01.210Z,988.2182
2022-11-29T07:08:00.488Z,987.9847
2022-11-29T07:09:00.509Z,987.9352
2022-11-29T07:10:00.643Z,988.2182
2022-11-29T07:11:00.790Z,988.0481
2022-11-29T07:12:00.941Z,988.0049
2022-11-29T07:13:01.090Z,987.9766
2022-11-29T07:14:01.259Z,988.0969
2022-11-29T07:15:00.370Z,988.0535
2022-11-29T07:16:00.522Z,987.9969
2022-11-29T07:17:00.684Z,987.9618
2022-11-29T07:18:00.834Z,987.9756
2022-11-29T07:19:00.997Z,988.0039
2022-11-29T07:20:01.171Z,988.0174
2022-11-29T07:21:00.279Z,988.0457
2022-11-29T07:22:00.424Z,988.1657
2022-11-29T07:23:00.559Z,988.1441
2022-11-29T07:24:00.704Z,988.1226
2022-11-29T07:25:00.865Z,988.0309
2022-11-29T07:26:00.996Z,987.9177
2022-11-29T07:27:01.163Z,988.0094
2022-11-29T07:28:00.277Z,988.101
2022-11-29T07:29:00.423Z,988.0444
2022-11-29T07:30:00.594Z,988.0579
2022-11-29T07:31:00.780Z,987.9878
2022-11-29T07:32:00.850Z,987.9878
2022-11-29T07:33:00.997Z,988.1428
2022-11-29T07:34:01.161Z,988.0084
2022-11-29T07:35:00.318Z,988.0646
2022-11-29T07:36:00.466Z,988.0646
2022-11-29T07:37:00.618Z,988.008
2022-11-29T07:38:00.750Z,988.0074
2022-11-29T07:39:00.899Z,988.0707
2022-11-29T07:40:01.050Z,988.1692
2022-11-29T07:41:01.214Z,988.1125
2022-11-29T07:42:00.344Z,988.1193
2022-11-29T07:43:00.476Z,988.2779
2022-11-29T07:44:00.626Z,988.2313
2022-11-29T07:45:00.773Z,988.1746
2022-11-29T07:46:00.947Z,988.3062
2022-11-29T07:47:01.144Z,988.1746
2022-11-29T07:48:01.219Z,988.1746
2022-11-29T07:49:00.368Z,988.2097
2022-11-29T07:50:00.539Z,988.3764
2022-11-29T07:51:00.661Z,988.1801
2022-11-29T07:52:00.808Z,988.265
2022-11-29T07:53:00.961Z,988.3184
2022-11-29T07:54:01.108Z,988.4169
2022-11-29T07:55:01.261Z,988.3036
2022-11-29T07:56:00.434Z,988.3242
2022-11-29T07:57:00.549Z,988.2676
2022-11-29T07:58:00.692Z,988.4227
2022-11-29T07:59:00.891Z,988.2415
2022-11-29T08:00:00.992Z,988.4015
2022-11-29T08:01:01.244Z,988.3017
2022-11-29T08:02:00.322Z,988.273
2022-11-29T08:03:00.442Z,988.3152
2022-11-29T08:04:00.580Z,988.442
2022-11-29T08:05:00.737Z,988.2788
2022-11-29T08:06:00.902Z,988.4205
2022-11-29T08:07:01.041Z,988.2788
2022-11-29T08:08:01.241Z,988.5258
2022-11-29T08:09:00.321Z,988.4627
2022-11-29T08:10:00.465Z,988.3558
2022-11-29T08:11:00.609Z,988.568
2022-11-29T08:12:00.756Z,988.3696
2022-11-29T08:13:00.921Z,988.2308
2022-11-29T08:14:01.064Z,988.3764
2022-11-29T08:15:01.205Z,988.3619
2022-11-29T08:16:00.419Z,988.482
2022-11-29T08:17:00.514Z,988.4537
2022-11-29T08:18:00.660Z,988.3403
2022-11-29T08:19:00.818Z,988.559
2022-11-29T08:20:04.025Z,988.4521
2022-11-29T08:21:01.108Z,988.5226
2022-11-29T08:22:01.250Z,988.5007
2022-11-29T08:23:00.405Z,988.578
2022-11-29T08:24:00.559Z,988.578
2022-11-29T08:25:00.691Z,988.578
2022-11-29T08:26:00.840Z,988.6131
2022-11-29T08:27:00.991Z,988.6483
2022-11-29T08:28:01.142Z,988.6834
2022-11-29T08:29:00.316Z,988.6553
2022-11-29T08:30:00.441Z,988.4215
2022-11-29T08:31:00.594Z,988.6553
2022-11-29T08:32:00.801Z,988.7185
2022-11-29T08:33:00.883Z,988.4489
2022-11-29T08:34:01.047Z,988.3844
2022-11-29T08:35:01.181Z,988.5749
2022-11-29T08:36:00.323Z,988.5465
2022-11-29T08:37:00.474Z,988.5317
2022-11-29T08:38:00.626Z,988.3899
2022-11-29T08:39:07.514Z,988.475
2022-11-29T08:40:00.918Z,988.5385
2022-11-29T08:41:01.076Z,988.5668
2022-11-29T08:42:01.221Z,988.6587
2022-11-29T08:43:00.375Z,988.6442
2022-11-29T08:44:00.529Z,988.5375
2022-11-29T08:45:00.699Z,988.4376
2022-11-29T08:46:00.864Z,988.4727
2022-11-29T08:47:00.966Z,988.593
2022-11-29T08:48:01.115Z,988.6632
2022-11-29T08:49:00.262Z,988.5353
2022-11-29T08:50:00.429Z,988.4363
2022-11-29T08:51:00.563Z,988.5208
2022-11-29T08:52:00.711Z,988.5569
2022-11-29T08:53:00.855Z,988.5137
2022-11-29T08:54:01.037Z,988.5704
2022-11-29T08:55:03.297Z,988.6127
2022-11-29T08:56:00.309Z,988.506
2022-11-29T08:57:31.436Z,988.7039
2022-11-29T08:58:00.605Z,988.5692
2022-11-29T08:59:00.761Z,988.6472
2022-11-29T09:00:00.900Z,988.5692
2022-11-29T09:01:01.103Z,988.7813
2022-11-29T09:02:01.236Z,988.8381
2022-11-29T09:03:00.333Z,988.7246
2022-11-29T09:04:00.471Z,988.7243
2022-11-29T09:05:00.619Z,988.7313
2022-11-29T09:06:00.804Z,988.6882
2022-11-29T09:07:00.908Z,988.8359
2022-11-29T09:08:01.119Z,988.7791
2022-11-29T09:09:01.198Z,988.8778
2022-11-29T09:10:00.359Z,988.8417
2022-11-29T09:11:00.509Z,988.8053
2022-11-29T09:12:00.665Z,988.8476
2022-11-29T09:13:00.790Z,988.7125
2022-11-29T09:14:00.944Z,988.996
2022-11-29T09:15:01.087Z,989.0235
2022-11-29T09:16:01.245Z,988.9167
2022-11-29T09:17:00.403Z,988.8316
2022-11-29T09:18:00.542Z,988.8316
2022-11-29T09:19:00.685Z,988.81
2022-11-29T09:20:00.841Z,988.7964
2022-11-29T09:21:00.990Z,989.0235
2022-11-29T09:22:01.150Z,988.8396
2022-11-29T09:23:00.310Z,988.9179
2022-11-29T09:24:00.437Z,988.9531
2022-11-29T09:25:00.584Z,989.0235
2022-11-29T09:26:00.748Z,989.0235
2022-11-29T09:27:00.886Z,988.9531
2022-11-29T09:28:01.055Z,988.9179
2022-11-29T09:29:01.260Z,988.8396
2022-11-29T09:30:00.330Z,988.8532
2022-11-29T09:31:00.470Z,988.7954
2022-11-29T09:32:00.709Z,988.7387
2022-11-29T09:33:00.773Z,988.8442
2022-11-29T09:34:00.918Z,988.8649
2022-11-29T09:35:01.079Z,988.9001
2022-11-29T09:36:01.207Z,988.9985
2022-11-29T09:37:00.368Z,989.0408
2022-11-29T09:38:00.512Z,989.1816
2022-11-29T09:39:00.644Z,989.2168
2022-11-29T09:40:00.846Z,988.9952
2022-11-29T09:41:00.942Z,989.0236
2022-11-29T09:42:01.108Z,988.8828
2022-11-29T09:43:01.243Z,988.9668
2022-11-29T09:44:00.392Z,988.9952
2022-11-29T09:45:00.560Z,989.052
2022-11-29T09:46:00.741Z,989.0236
2022-11-29T09:47:00.831Z,988.9668
2022-11-29T09:48:00.965Z,988.9668
2022-11-29T09:49:01.116Z,989.0236
2022-11-29T09:51:00.388Z,989.0011
2022-11-29T09:52:00.517Z,988.9875
2022-11-29T09:53:00.679Z,989.0082
2022-11-29T09:54:00.849Z,988.7593
2022-11-29T09:55:01.013Z,988.8945
2022-11-29T09:56:01.148Z,989.065
2022-11-29T09:57:00.357Z,988.9442
2022-11-29T09:58:00.441Z,988.9158
2022-11-29T09:59:00.585Z,988.8874
2022-11-29T10:00:00.750Z,988.8377
2022-11-29T10:01:00.913Z,989.0001
2022-11-29T10:02:01.088Z,988.9501
2022-11-29T10:03:01.150Z,989.1274
2022-11-29T10:04:00.307Z,989.1265
2022-11-29T10:05:00.450Z,989.049
2022-11-29T10:06:00.600Z,988.9208
2022-11-29T10:07:00.777Z,988.8639
2022-11-29T10:08:00.959Z,988.9625
2022-11-29T10:09:01.052Z,988.9548
2022-11-29T10:10:01.200Z,988.9186
2022-11-29T10:11:00.335Z,989.0453
2022-11-29T10:12:00.520Z,988.9251
2022-11-29T10:13:00.660Z,989.0453
2022-11-29T10:14:00.792Z,988.947
2022-11-29T10:15:00.938Z,989.0892
2022-11-29T10:16:01.095Z,989.0453
2022-11-29T10:17:01.329Z,988.9885
2022-11-29T10:18:00.385Z,988.9885
2022-11-29T10:19:00.533Z,989.1448
2022-11-29T10:20:00.704Z,989.0515
2022-11-29T10:21:00.836Z,989.0935
2022-11-29T10:22:00.985Z,989.0083
2022-11-29T10:23:01.142Z,988.973
2022-11-29T10:24:00.282Z,989.0435
2022-11-29T10:25:00.453Z,989.0083
2022-11-29T10:26:00.583Z,989.1003
2022-11-29T10:27:00.734Z,989.0435
2022-11-29T10:28:00.900Z,989.122
2022-11-29T10:29:01.019Z,989.066
2022-11-29T10:30:01.167Z,988.9662
2022-11-29T10:31:00.341Z,989.0367
2022-11-29T10:32:00.868Z,989.0355
2022-11-29T10:33:00.606Z,988.9217
2022-11-29T10:34:00.747Z,989.1267
2022-11-29T10:35:00.906Z,989.0129
2022-11-29T10:36:01.050Z,989.0982
2022-11-29T10:37:01.223Z,989.1835
2022-11-29T10:38:29.779Z,989.0129
2022-11-29T10:39:00.508Z,989.1267
2022-11-29T10:40:00.650Z,988.9632
2022-11-29T10:41:00.801Z,989.161
2022-11-29T10:42:00.978Z,989.068
2022-11-29T10:43:01.098Z,989.068
2022-11-29T10:44:01.231Z,989.1385
2022-11-29T10:45:00.397Z,988.953
2022-11-29T10:46:00.616Z,988.9666
2022-11-29T10:47:00.698Z,989.094
2022-11-29T10:48:00.841Z,989.0306
2022-11-29T10:49:00.984Z,989.0235
2022-11-29T10:50:01.126Z,988.995
2022-11-29T10:51:00.264Z,989.2442
2022-11-29T10:52:00.412Z,989.209
2022-11-29T10:53:00.561Z,989.1385
2022-11-29T10:54:00.741Z,989.0383
2022-11-29T10:55:00.898Z,989.1385
2022-11-29T10:56:01.052Z,989.1032
2022-11-29T10:57:01.159Z,989.1953
2022-11-29T10:58:00.303Z,989.2875
2022-11-29T10:59:00.449Z,989.209
2022-11-29T11:00:00.629Z,989.2795
2022-11-29T11:01:00.810Z,989.0943
2022-11-29T11:02:00.874Z,989.1509
2022-11-29T11:03:01.025Z,989.3853
2022-11-29T11:04:01.177Z,989.094
2022-11-29T11:05:00.327Z,989.1716
2022-11-29T11:06:00.533Z,989.1998
2022-11-29T11:07:00.626Z,989.0655
2022-11-29T11:08:00.835Z,989.094
2022-11-29T11:09:00.921Z,989.3219
2022-11-29T11:10:01.067Z,989.35
2022-11-29T11:11:02.145Z,989.1861
2022-11-29T11:12:00.376Z,989.1432
2022-11-29T11:13:00.516Z,989.2567
2022-11-29T11:14:00.666Z,989.1283
2022-11-29T11:15:00.813Z,989.3058
2022-11-29T11:16:00.963Z,989.12
2022-11-29T11:17:01.147Z,989.2623
2022-11-29T11:18:00.268Z,989.12
2022-11-29T11:19:00.411Z,989.1351
2022-11-29T11:20:00.558Z,989.2567
2022-11-29T11:21:00.738Z,989.1485
2022-11-29T11:22:00.861Z,989.2116
2022-11-29T11:23:00.994Z,988.9846
2022-11-29T11:24:01.151Z,989.1476
2022-11-29T11:25:00.294Z,989.1467
2022-11-29T11:26:00.478Z,989.1751
2022-11-29T11:27:00.604Z,989.2889
2022-11-29T11:28:00.744Z,989.1114
2022-11-29T11:29:00.889Z,989.1398
2022-11-29T11:30:01.029Z,989.2889
2022-11-29T11:31:01.284Z,989.1467
2022-11-29T11:32:00.328Z,989.1819
2022-11-29T11:33:00.473Z,989.1683
2022-11-29T11:34:00.607Z,989.2252
2022-11-29T11:35:00.764Z,989.2605
2022-11-29T11:36:00.924Z,989.133
2022-11-29T11:37:01.079Z,989.2036
2022-11-29T11:38:01.225Z,989.1046
2022-11-29T11:39:00.365Z,989.2753
2022-11-29T11:40:00.643Z,989.2388
2022-11-29T11:41:00.662Z,989.1819
2022-11-29T11:42:00.818Z,989.388
2022-11-29T11:43:00.970Z,989.1603
2022-11-29T11:44:02.526Z,989.2878
2022-11-29T11:45:01.433Z,989.2537
2022-11-29T11:46:00.468Z,989.1683
2022-11-29T11:47:00.531Z,989.1683
2022-11-29T11:48:00.690Z,989.3811